Belocean — 9V8782 — position and weather

sailwx.info

Track history (hours):
 
Tides and Currents Weather Stations Pressure Air Temp Water Temp Dewpoint Dewpoint Depression Visibility Wind Speed Wind Dir Waves Ship Positions

Belocean

Last reported at 2017-Jul-19 21:44 UTC. Time now 2017-Aug-22 20:41 UTC.
Position S 31°11' E 030°17'.
Warning: this ship's position is 33 days out of date.

Length 190 m; draft 10.8 m.

Type: Ship. MMSI: 563582000.

Date/timePositionNaut miles runAvg speedWind from/ knotsBaromVisibWave heightAir tempDewpointWater temp
2017-Jul-19 21:44S 31°11' E 030°17'312.4
2017-Jul-19 21:30S 31°09' E 030°20'612.8
2017-Jul-19 21:00S 31°04' E 030°24'3113.0
2017-Jul-19 18:37S 30°39' E 030°47'8511.7
2017-Jul-19 11:18S 29°31' E 031°46'311.3
2017-Jul-19 11:00S 29°29' E 031°48'611.7
2017-Jul-19 10:30S 29°24' E 031°52'612.7
2017-Jul-19 10:00S 29°19' E 031°57'713.2
2017-Jul-19 09:30S 29°14' E 032°01'  
2017-Jul-13 18:22S 20°58' E 057°30'  
Track history (hours):
 
Tides and Currents Weather Stations Pressure Air Temp Water Temp Dewpoint Dewpoint Depression Visibility Wind Speed Wind Dir Waves Ship Positions

Belocean

Last reported at 2017-Jul-19 21:44 UTC. Time now 2017-Aug-22 20:41 UTC.
Position S 31°11' E 030°17'.
Warning: this ship's position is 33 days out of date.

Length 190 m; draft 10.8 m.

Type: Ship. MMSI: 563582000.

Date/timePositionNaut miles runAvg speedWind from/ knotsBaromVisibWave heightAir tempDewpointWater temp
2017-Jul-19 21:44S 31°11' E 030°17'312.4
2017-Jul-19 21:30S 31°09' E 030°20'612.8
2017-Jul-19 21:00S 31°04' E 030°24'3113.0
2017-Jul-19 18:37S 30°39' E 030°47'8511.7
2017-Jul-19 11:18S 29°31' E 031°46'311.3
2017-Jul-19 11:00S 29°29' E 031°48'611.7
2017-Jul-19 10:30S 29°24' E 031°52'612.7
2017-Jul-19 10:00S 29°19' E 031°57'713.2
2017-Jul-19 09:30S 29°14' E 032°01'  
2017-Jul-13 18:22S 20°58' E 057°30'  

Dump ship's entire track history